Time;durP1;ratioP1;P1;durP2;ratioP2;P2;SDS_P1;SDS_P2;PMS_P1;PMS_P2;Temp;Humidity;BMP_temperature;BMP_pressure;BME280_temperature;BME280_humidity;BME280_pressure;Samples;Min_cycle;Max_cycle;Signal;HPM_P1;HPM_P2
2022/05/06 00:01:39;;;;;;;2.72;2.53;;;12.00;99.90;;;;;;6239234;23;20027;-83
2022/05/06 00:04:07;;;;;;;2.30;2.13;;;11.90;99.90;;;;;;6245591;23;20031;-83
2022/05/06 00:06:36;;;;;;;1.88;1.77;;;11.90;99.90;;;;;;6247559;23;20016;-83
2022/05/06 00:09:04;;;;;;;2.95;2.05;;;11.80;99.90;;;;;;6241143;23;20027;-83
2022/05/06 00:11:36;;;;;;;2.27;2.07;;;11.70;99.90;;;;;;6220574;23;20454;-81
2022/05/06 00:14:04;;;;;;;2.05;1.90;;;11.60;99.90;;;;;;6248215;23;20708;-80
2022/05/06 00:16:34;;;;;;;4.25;1.63;;;11.40;99.90;;;;;;6243686;23;20020;-84
2022/05/06 00:19:02;;;;;;;1.35;1.25;;;11.20;99.90;;;;;;6248107;23;20016;-84
2022/05/06 00:21:30;;;;;;;1.55;1.42;;;10.90;99.90;;;;;;6210128;23;20032;-81
2022/05/06 00:24:00;;;;;;;2.50;1.88;;;10.70;99.90;;;;;;6246436;23;20075;-83
2022/05/06 00:26:38;;;;;;;1.98;1.60;;;10.60;99.90;;;;;;6211549;23;20339;-83
2022/05/06 00:29:10;;;;;;;9.53;1.40;;;10.50;99.90;;;;;;6205713;23;20619;-86
2022/05/06 00:31:44;;;;;;;1.70;1.38;;;10.40;99.90;;;;;;6229591;23;20250;-84
2022/05/06 00:34:12;;;;;;;1.05;1.05;;;10.30;99.90;;;;;;6199294;23;20021;-83
2022/05/06 00:36:42;;;;;;;3.03;1.33;;;10.20;99.90;;;;;;6242490;23;20031;-83
2022/05/06 00:39:15;;;;;;;1.90;1.80;;;10.10;99.90;;;;;;6221920;23;20020;-88
2022/05/06 00:41:46;;;;;;;2.08;1.90;;;10.20;99.90;;;;;;6238692;23;20028;-84
2022/05/06 00:44:39;;;;;;;2.20;1.83;;;10.00;99.90;;;;;;6217691;23;20035;-84
2022/05/06 00:47:59;;;;;;;1.35;1.27;;;10.00;99.90;;;;;;6237164;23;20359;-83
2022/05/06 00:51:24;;;;;;;10.00;2.45;;;10.10;99.90;;;;;;6222377;23;20016;-84
2022/05/06 00:55:04;;;;;;;;;;;;;;;;;;;;;
2022/05/06 01:03:45;;;;;;;4.70;1.98;;;10.10;99.90;;;;;;6222910;23;20011;-88
2022/05/06 01:06:16;;;;;;;2.80;1.88;;;10.10;99.90;;;;;;6215845;23;20035;-87
2022/05/06 01:08:53;;;;;;;3.55;1.88;;;10.10;99.90;;;;;;6241482;23;20020;-86
2022/05/06 01:11:21;;;;;;;3.15;2.22;;;10.20;99.90;;;;;;6247573;23;20020;-84
2022/05/06 01:13:55;;;;;;;2.65;2.45;;;10.20;99.90;;;;;;6209419;23;20035;-83
2022/05/06 01:16:39;;;;;;;3.13;1.50;;;10.20;99.90;;;;;;6230167;23;20024;-83
2022/05/06 01:19:20;;;;;;;1.88;1.27;;;10.20;99.90;;;;;;6174342;23;20016;-82
2022/05/06 01:21:52;;;;;;;1.83;1.73;;;10.20;99.90;;;;;;6206191;23;20035;-81
2022/05/06 01:24:20;;;;;;;2.20;1.45;;;10.20;99.90;;;;;;6245796;23;20028;-81
2022/05/06 01:26:57;;;;;;;2.63;2.47;;;10.20;99.90;;;;;;6222914;23;20020;-82
2022/05/06 01:29:29;;;;;;;2.40;2.17;;;10.20;99.90;;;;;;6214030;23;20080;-82
2022/05/06 01:31:58;;;;;;;1.30;1.20;;;10.20;99.90;;;;;;6247381;23;20020;-81
2022/05/06 01:34:28;;;;;;;1.38;1.10;;;10.10;99.90;;;;;;6248060;23;20023;-82
2022/05/06 01:37:01;;;;;;;1.10;1.10;;;10.10;99.90;;;;;;6242702;23;20028;-82
2022/05/06 01:39:33;;;;;;;1.90;1.73;;;10.10;99.90;;;;;;6248647;23;20016;-81
2022/05/06 01:42:08;;;;;;;3.60;3.30;;;10.10;99.90;;;;;;6212102;23;20028;-83
2022/05/06 01:44:47;;;;;;;2.15;1.95;;;10.10;99.90;;;;;;6212680;23;20028;-86
2022/05/06 01:47:19;;;;;;;2.05;1.90;;;10.00;99.90;;;;;;6250188;23;20016;-86
2022/05/06 01:49:51;;;;;;;1.60;1.50;;;10.00;99.90;;;;;;6212085;23;20020;-86
2022/05/06 01:52:20;;;;;;;;;;;9.90;99.90;;;;;;6218857;23;20035;-85
2022/05/06 01:54:48;;;;;;;1.08;1.00;;;9.90;99.90;;;;;;6222976;23;19919;-85
2022/05/06 01:57:32;;;;;;;2.88;1.40;;;9.90;99.90;;;;;;6186381;23;20615;-86
2022/05/06 02:00:00;;;;;;;6.22;3.13;;;9.90;99.90;;;;;;6245607;23;20020;-81
2022/05/06 02:02:30;;;;;;;1.60;1.50;;;9.90;99.90;;;;;;6187249;23;20020;-81
2022/05/06 02:08:04;;;;;;;2.05;1.65;;;10.00;99.90;;;;;;6220030;23;20012;-82
2022/05/06 02:11:08;;;;;;;2.55;1.77;;;10.00;99.90;;;;;;6223511;23;20431;-82
2022/05/06 02:14:27;;;;;;;2.15;1.90;;;10.00;99.90;;;;;;6156165;23;20531;-84
2022/05/06 02:17:48;;;;;;;3.07;1.67;;;10.00;99.90;;;;;;6183845;23;20027;-83
2022/05/06 02:20:25;;;;;;;1.90;1.73;;;10.00;99.90;;;;;;6178760;23;20028;-83
2022/05/06 02:22:58;;;;;;;1.40;1.30;;;10.00;99.90;;;;;;6179919;23;20017;-83
2022/05/06 02:25:31;;;;;;;1.38;1.20;;;10.00;99.90;;;;;;6200252;23;20032;-81
2022/05/06 02:28:18;;;;;;;2.55;2.33;;;10.00;99.90;;;;;;6164921;23;20021;-80
2022/05/06 02:33:51;;;;;;;;;;;9.90;99.90;;;;;;6209833;23;20017;-82
2022/05/06 02:36:23;;;;;;;2.80;1.58;;;9.90;99.90;;;;;;6213030;23;19924;-82
2022/05/06 02:38:51;;;;;;;2.10;1.90;;;9.90;99.90;;;;;;6191845;23;20013;-82
2022/05/06 02:41:19;;;;;;;9.77;2.05;;;9.80;99.90;;;;;;6184428;23;20024;-82
2022/05/06 02:43:51;;;;;;;1.58;1.48;;;9.90;99.90;;;;;;6156638;23;20016;-83
2022/05/06 02:46:25;;;;;;;2.30;2.10;;;9.90;99.90;;;;;;6187042;23;20016;-85
2022/05/06 02:48:54;;;;;;;2.10;1.92;;;9.90;99.90;;;;;;6176672;23;20029;-82
2022/05/06 02:51:22;;;;;;;1.10;1.10;;;9.90;99.90;;;;;;6175746;23;20017;-83
2022/05/06 02:53:52;;;;;;;1.52;1.42;;;9.90;99.90;;;;;;6153251;23;20036;-84
2022/05/06 02:57:19;;;;;;;1.75;1.65;;;9.90;99.90;;;;;;6181696;23;20021;-82
2022/05/06 03:01:18;;;;;;;;;;;;;;;;;;;;;
2022/05/06 03:05:13;;;;;;;2.50;2.25;;;9.90;99.90;;;;;;6089336;23;20341;-84
2022/05/06 03:08:36;;;;;;;;;;;10.00;99.90;;;;;;5972060;23;20019;-82
2022/05/06 03:32:13;;;;;;;4.05;3.75;;;10.10;99.90;;;;;;5864547;24;20049;-83
2022/05/06 03:37:27;;;;;;;;;;;;;;;;;;;;;
2022/05/06 04:00:22;;;;;;;3.65;3.28;;;10.10;99.90;;;;;;6085891;23;20030;-86
2022/05/06 04:03:50;;;;;;;4.68;4.32;;;10.00;99.90;;;;;;6193132;23;20748;-86
2022/05/06 04:06:26;;;;;;;4.88;3.25;;;9.90;99.90;;;;;;6213621;23;20035;-86
2022/05/06 04:08:56;;;;;;;3.38;2.90;;;10.10;99.90;;;;;;6207943;23;20036;-86
2022/05/06 04:11:30;;;;;;;3.80;3.40;;;10.00;99.90;;;;;;6191084;23;20314;-86
2022/05/06 04:14:03;;;;;;;3.65;3.22;;;10.00;99.90;;;;;;6220653;23;20742;-86
2022/05/06 04:16:41;;;;;;;4.45;3.90;;;10.10;99.90;;;;;;6209420;23;20352;-87
2022/05/06 04:19:26;;;;;;;2.92;2.58;;;10.10;99.90;;;;;;6187008;23;20020;-87
2022/05/06 04:25:09;;;;;;;3.22;2.92;;;10.00;99.90;;;;;;6214190;23;20031;-87
2022/05/06 04:27:58;;;;;;;3.55;3.22;;;10.10;99.90;;;;;;6219767;23;20019;-85
2022/05/06 04:39:11;;;;;;;2.97;2.78;;;10.10;99.90;;;;;;6057313;23;20048;-88
2022/05/06 04:51:23;;;;;;;5.82;3.83;;;10.00;99.90;;;;;;6199979;23;20051;-82
2022/05/06 04:53:54;;;;;;;3.45;3.15;;;10.00;99.90;;;;;;6185460;23;20032;-82
2022/05/06 04:56:23;;;;;;;4.35;3.28;;;10.00;99.90;;;;;;6216699;23;20035;-84
2022/05/06 04:58:55;;;;;;;4.82;3.65;;;10.00;99.90;;;;;;6220319;23;20040;-82
2022/05/06 05:01:56;;;;;;;5.80;3.55;;;10.00;99.90;;;;;;6170954;23;20025;-83
2022/05/06 05:04:30;;;;;;;4.45;3.47;;;10.00;99.90;;;;;;6185944;23;20024;-87
2022/05/06 05:07:17;;;;;;;5.07;3.72;;;10.00;99.90;;;;;;6185684;23;20027;-87
2022/05/06 05:10:05;;;;;;;3.55;3.25;;;10.00;99.90;;;;;;6189546;23;20028;-87
2022/05/06 05:12:42;;;;;;;5.60;3.08;;;10.00;99.90;;;;;;6148156;23;20034;-85
2022/05/06 05:15:30;;;;;;;;;;;;;;;;;;;;;
2022/05/06 05:18:35;;;;;;;5.60;5.07;;;10.20;99.90;;;;;;6103496;23;20025;-87
2022/05/06 05:21:07;;;;;;;5.13;3.60;;;10.10;99.90;;;;;;6080432;23;20369;-87
2022/05/06 05:24:04;;;;;;;4.30;3.88;;;10.10;99.90;;;;;;6051234;23;20067;-84
2022/05/06 05:26:54;;;;;;;4.85;4.45;;;10.20;99.90;;;;;;6086072;23;20030;-84
2022/05/06 05:29:40;;;;;;;4.55;3.97;;;10.10;99.90;;;;;;6063182;23;20537;-86
2022/05/06 05:32:28;;;;;;;4.07;3.00;;;10.20;99.90;;;;;;6070329;23;20029;-84
2022/05/06 05:34:56;;;;;;;5.65;4.93;;;10.20;99.90;;;;;;6088770;23;20026;-86
2022/05/06 05:37:31;;;;;;;6.13;4.43;;;10.20;99.90;;;;;;6059840;23;20023;-86
2022/05/06 05:48:58;;;;;;;8.07;5.47;;;10.20;99.90;;;;;;6048979;23;20025;-84
2022/05/06 05:52:02;;;;;;;9.77;5.47;;;10.20;99.90;;;;;;5999344;23;20040;-85
2022/05/06 06:30:34;;;;;;;9.82;7.82;;;10.30;99.90;;;;;;6042053;23;20029;-85
2022/05/06 06:33:45;;;;;;;;;;;10.40;99.90;;;;;;5972733;23;20027;-84
2022/05/06 06:37:38;;;;;;;9.63;6.75;;;10.40;99.90;;;;;;6029886;23;19933;-87
2022/05/06 06:41:14;;;;;;;;;;;;;;;;;;;;;
2022/05/06 06:45:37;;;;;;;13.55;9.20;;;10.50;99.90;;;;;;5915903;24;20040;-86
2022/05/06 06:48:57;;;;;;;13.57;9.38;;;10.50;99.90;;;;;;5912475;24;20033;-84
2022/05/06 06:52:35;;;;;;;14.45;10.07;;;10.50;99.90;;;;;;5838273;24;20046;-86
2022/05/06 06:55:26;;;;;;;12.57;8.63;;;10.60;99.90;;;;;;5837710;24;20371;-85
2022/05/06 07:03:38;;;;;;;17.02;12.82;;;10.60;99.90;;;;;;5873047;24;20042;-85
2022/05/06 07:42:23;;;;;;;19.80;13.60;;;10.90;99.90;;;;;;5941815;24;20016;-84
2022/05/06 08:21:49;;;;;;;18.48;11.98;;;11.30;99.90;;;;;;5615141;25;20033;-84
2022/05/06 08:38:00;;;;;;;15.05;11.15;;;11.40;99.90;;;;;;5380136;22;17965091;-83
2022/05/06 08:41:45;;;;;;;13.45;10.80;;;11.50;99.90;;;;;;6124895;23;20037;-82
2022/05/06 08:50:54;;;;;;;15.52;12.25;;;11.60;99.90;;;;;;6142440;23;20028;-82
2022/05/06 08:53:33;;;;;;;15.77;11.77;;;11.60;99.90;;;;;;6178827;23;20439;-83
2022/05/06 08:56:16;;;;;;;16.65;13.23;;;11.60;99.90;;;;;;6197473;23;20020;-82
2022/05/06 08:58:44;;;;;;;20.05;11.95;;;11.70;99.90;;;;;;6225694;23;20017;-83
2022/05/06 09:01:16;;;;;;;18.73;12.05;;;11.70;99.90;;;;;;6152566;23;20040;-83
2022/05/06 09:03:47;;;;;;;14.90;13.38;;;11.70;99.90;;;;;;6173434;23;20027;-82
2022/05/06 09:06:25;;;;;;;16.13;14.23;;;11.70;99.90;;;;;;6188356;23;20016;-83
2022/05/06 09:08:58;;;;;;;16.40;12.13;;;11.70;99.90;;;;;;6138963;23;20025;-83
2022/05/06 09:17:22;;;;;;;17.10;11.77;;;11.80;99.90;;;;;;6147925;23;20024;-82
2022/05/06 09:19:50;;;;;;;17.73;13.40;;;11.80;99.90;;;;;;6224061;23;20017;-83
2022/05/06 09:22:19;;;;;;;14.27;11.60;;;11.80;99.90;;;;;;6188351;23;20024;-83
2022/05/06 09:24:48;;;;;;;17.38;13.85;;;11.90;99.90;;;;;;6193020;23;20022;-83
2022/05/06 09:27:17;;;;;;;14.65;10.57;;;11.90;99.90;;;;;;6189062;23;20023;-83
2022/05/06 09:29:47;;;;;;;14.45;10.88;;;12.00;99.90;;;;;;6137814;23;20020;-84
2022/05/06 09:32:19;;;;;;;16.15;11.30;;;12.00;99.90;;;;;;6163546;23;20024;-85
2022/05/06 09:34:58;;;;;;;14.55;12.07;;;12.10;99.90;;;;;;6170696;23;20023;-84
2022/05/06 09:37:37;;;;;;;15.10;12.13;;;12.10;99.90;;;;;;6182795;23;20024;-84
2022/05/06 09:40:19;;;;;;;13.90;9.90;;;12.10;99.90;;;;;;6181498;23;20285;-83
2022/05/06 09:43:00;;;;;;;12.10;10.82;;;12.20;99.90;;;;;;6157885;23;20027;-85
2022/05/06 09:45:37;;;;;;;14.70;11.02;;;12.30;99.90;;;;;;6156516;23;20025;-85
2022/05/06 09:48:09;;;;;;;13.50;12.18;;;12.30;99.90;;;;;;6215610;23;20021;-85
2022/05/06 09:50:45;;;;;;;17.77;12.77;;;12.30;99.90;;;;;;6134302;23;20012;-85
2022/05/06 09:53:19;;;;;;;17.35;12.27;;;12.30;99.90;;;;;;6183673;23;20035;-84
2022/05/06 09:55:48;;;;;;;12.80;10.50;;;12.30;99.90;;;;;;6217731;23;20023;-85
2022/05/06 09:58:17;;;;;;;16.75;12.52;;;12.30;99.90;;;;;;6190061;23;20024;-84
2022/05/06 10:00:45;;;;;;;15.00;11.88;;;12.40;99.90;;;;;;6181698;23;20043;-85
2022/05/06 10:03:13;;;;;;;13.23;11.88;;;12.40;99.90;;;;;;6191880;23;20433;-85
2022/05/06 10:05:41;;;;;;;20.02;10.95;;;12.30;99.90;;;;;;6208593;23;20028;-85
2022/05/06 10:08:15;;;;;;;16.42;13.20;;;12.20;99.90;;;;;;6214120;23;20064;-84
2022/05/06 10:10:55;;;;;;;15.35;11.60;;;12.30;99.90;;;;;;6218615;23;20012;-84
2022/05/06 10:13:23;;;;;;;17.00;11.75;;;12.30;99.90;;;;;;6210604;23;20029;-85
2022/05/06 10:15:56;;;;;;;13.45;11.38;;;12.30;99.90;;;;;;6188418;23;20025;-85
2022/05/06 10:18:40;;;;;;;13.10;11.15;;;12.30;99.90;;;;;;6218678;23;20020;-85
2022/05/06 10:21:12;;;;;;;13.98;12.50;;;12.30;99.90;;;;;;6184818;23;20028;-85
2022/05/06 10:24:14;;;;;;;13.80;12.40;;;12.30;99.90;;;;;;6181035;23;20021;-85
2022/05/06 10:26:45;;;;;;;14.80;12.57;;;12.30;99.90;;;;;;6218616;23;20020;-85
2022/05/06 10:33:01;;;;;;;17.50;10.95;;;12.20;99.90;;;;;;6181088;23;20020;-86
2022/05/06 10:35:39;;;;;;;13.05;11.48;;;12.20;99.90;;;;;;6144838;23;20021;-84
2022/05/06 10:38:19;;;;;;;13.98;10.38;;;12.20;99.90;;;;;;6163447;23;20032;-85
2022/05/06 10:41:02;;;;;;;14.90;11.90;;;12.20;99.90;;;;;;6186229;23;20028;-85
2022/05/06 10:43:40;;;;;;;13.63;11.13;;;12.20;99.90;;;;;;6191415;23;20420;-85
2022/05/06 10:46:40;;;;;;;15.63;11.80;;;12.30;99.90;;;;;;6165065;23;20029;-86
2022/05/06 10:49:38;;;;;;;13.93;12.35;;;12.20;99.90;;;;;;6210651;23;20029;-87
2022/05/06 10:52:15;;;;;;;15.38;13.77;;;12.30;99.90;;;;;;6187356;23;20035;-87
2022/05/06 10:54:50;;;;;;;14.68;11.60;;;12.40;99.90;;;;;;6182308;23;20455;-90
2022/05/06 10:58:00;;;;;;;16.00;11.65;;;12.50;99.90;;;;;;6166124;23;20024;-91
2022/05/06 11:00:37;;;;;;;11.85;8.50;;;12.60;99.90;;;;;;6162072;23;20031;-90
2022/05/06 11:03:23;;;;;;;12.52;9.32;;;12.70;99.90;;;;;;6164454;23;20009;-91
2022/05/06 11:06:36;;;;;;;10.02;9.02;;;12.70;99.90;;;;;;6164113;23;20023;-91
2022/05/06 11:09:04;;;;;;;16.52;11.68;;;12.90;99.90;;;;;;6193240;23;20332;-90
2022/05/06 11:11:33;;;;;;;12.43;10.80;;;13.00;99.90;;;;;;6136855;23;20357;-93
2022/05/06 11:14:26;;;;;;;9.40;8.43;;;13.00;99.90;;;;;;6165017;23;20017;-91
2022/05/06 11:17:52;;;;;;;16.55;11.98;;;12.80;99.90;;;;;;6119237;23;20037;-88
2022/05/06 11:20:51;;;;;;;21.17;10.30;;;12.80;99.90;;;;;;6119987;23;20075;-87
2022/05/06 11:23:42;;;;;;;10.55;8.40;;;12.80;99.90;;;;;;6206924;23;20039;-85
2022/05/06 11:30:32;;;;;;;9.98;8.98;;;12.90;99.90;;;;;;6180261;23;20031;-86
2022/05/06 11:33:07;;;;;;;11.02;9.18;;;12.90;99.90;;;;;;6168776;23;20033;-81
2022/05/06 11:42:07;;;;;;;11.60;10.35;;;12.90;99.90;;;;;;6030838;23;20025;-85
2022/05/06 11:53:35;;;;;;;11.70;10.18;;;13.10;99.90;;;;;;6091745;23;20078;-85
2022/05/06 12:13:23;;;;;;;11.07;8.77;;;13.40;99.90;;;;;;6175151;23;20021;-88
2022/05/06 12:16:56;;;;;;;14.05;10.95;;;13.60;99.90;;;;;;6119796;23;20021;-88
2022/05/06 12:20:46;;;;;;;11.43;9.20;;;13.70;99.90;;;;;;5822515;24;20056;-85
2022/05/06 12:28:45;;;;;;;14.70;10.70;;;13.90;99.90;;;;;;5880851;24;20018;-90
2022/05/06 12:35:22;;;;;;;17.52;12.55;;;13.50;99.90;;;;;;6000643;23;20039;-78
2022/05/06 12:37:58;;;;;;;14.40;11.10;;;13.50;99.90;;;;;;6027743;23;20031;-81
2022/05/06 12:40:34;;;;;;;14.90;11.70;;;13.60;99.90;;;;;;6031684;23;20034;-81
2022/05/06 12:43:06;;;;;;;15.38;12.20;;;13.80;99.90;;;;;;6037634;23;20038;-79
2022/05/06 12:45:38;;;;;;;21.58;13.25;;;14.00;99.90;;;;;;6029249;23;20038;-80
2022/05/06 12:52:21;;;;;;;28.70;13.40;;;14.20;99.90;;;;;;6175893;23;20021;-85
2022/05/06 12:55:56;;;;;;;14.18;11.77;;;14.10;99.90;;;;;;6090638;23;20030;-87
2022/05/06 12:58:34;;;;;;;14.43;10.70;;;14.10;99.90;;;;;;6069981;23;20431;31
2022/05/06 13:04:32;;;;;;;17.63;12.75;;;13.70;99.90;;;;;;6176303;23;20554;-82
2022/05/06 13:10:35;;;;;;;14.32;11.30;;;13.70;99.90;;;;;;6190950;23;20032;-86
2022/05/06 13:13:09;;;;;;;13.07;9.93;;;13.60;99.90;;;;;;6158735;23;20028;-90
2022/05/06 13:15:37;;;;;;;14.68;10.88;;;13.50;99.90;;;;;;6169011;23;20012;-84
2022/05/06 13:18:05;;;;;;;14.05;10.15;;;13.40;99.90;;;;;;6157383;23;20029;-82
2022/05/06 13:20:45;;;;;;;10.35;8.57;;;13.40;99.90;;;;;;6158781;23;20024;-87
2022/05/06 13:23:26;;;;;;;14.65;10.40;;;13.30;99.90;;;;;;6136957;23;20023;-86
2022/05/06 13:26:22;;;;;;;17.42;12.55;;;13.30;99.90;;;;;;6116762;23;20021;-86
2022/05/06 13:29:08;;;;;;;17.45;11.98;;;13.30;99.90;;;;;;6130982;23;20487;-84
2022/05/06 13:31:49;;;;;;;17.38;12.32;;;13.30;99.90;;;;;;6132501;23;20016;-88
2022/05/06 13:34:19;;;;;;;15.38;12.75;;;13.30;99.90;;;;;;6091795;23;20332;-86
2022/05/06 13:36:56;;;;;;;20.17;11.90;;;13.20;99.90;;;;;;6172966;23;20021;-84
2022/05/06 13:39:24;;;;;;;16.25;13.00;;;13.20;99.90;;;;;;6133841;23;20028;-86
2022/05/06 13:41:55;;;;;;;14.45;9.52;;;13.20;99.90;;;;;;6157819;23;20020;-89
2022/05/06 13:44:23;;;;;;;13.85;10.18;;;13.30;99.90;;;;;;6133485;23;20023;-89
2022/05/06 13:46:54;;;;;;;17.48;12.82;;;13.30;99.90;;;;;;6158369;23;20021;-85
2022/05/06 13:49:22;;;;;;;17.27;10.48;;;13.40;99.90;;;;;;6183752;23;20021;-86
2022/05/06 13:51:50;;;;;;;12.50;9.93;;;13.30;99.90;;;;;;6156444;23;20059;-86
2022/05/06 13:54:17;;;;;;;13.27;9.82;;;13.20;99.90;;;;;;6219169;23;20020;-85
2022/05/06 13:59:32;;;;;;;11.90;10.35;;;13.00;99.90;;;;;;6192778;23;20017;-85
2022/05/06 14:01:59;;;;;;;13.68;10.73;;;13.00;99.90;;;;;;6182682;23;20047;-85
2022/05/06 14:04:29;;;;;;;14.18;11.20;;;12.90;99.90;;;;;;6181325;23;20059;-88
2022/05/06 14:07:16;;;;;;;13.18;10.10;;;12.90;99.90;;;;;;6136341;23;20016;-87
2022/05/06 14:09:46;;;;;;;16.67;12.30;;;12.90;99.90;;;;;;6132444;23;20027;-85
2022/05/06 14:12:17;;;;;;;13.25;10.50;;;12.90;99.90;;;;;;6185121;23;20020;-87
2022/05/06 14:14:47;;;;;;;11.50;10.30;;;13.00;99.90;;;;;;6219832;23;20023;-90
2022/05/06 14:17:16;;;;;;;13.18;10.23;;;13.00;99.90;;;;;;6157506;23;20036;-89
2022/05/06 14:19:43;;;;;;;15.10;12.90;;;13.00;99.90;;;;;;6132384;23;20020;-88
2022/05/06 14:22:12;;;;;;;17.75;11.43;;;13.10;99.90;;;;;;6193803;23;20337;-88
2022/05/06 14:24:42;;;;;;;14.93;11.52;;;13.10;99.90;;;;;;6187457;23;20032;-86
2022/05/06 14:27:09;;;;;;;12.80;10.10;;;13.20;99.90;;;;;;6218908;23;20021;-84
2022/05/06 14:29:37;;;;;;;15.80;12.07;;;13.30;99.90;;;;;;6182672;23;20027;-85
2022/05/06 14:32:05;;;;;;;12.82;10.95;;;13.30;99.90;;;;;;6180569;23;20020;-85
2022/05/06 14:34:33;;;;;;;11.63;9.95;;;13.50;99.90;;;;;;6191859;23;20016;-79
2022/05/06 14:37:01;;;;;;;12.93;11.18;;;13.50;99.90;;;;;;6210979;23;20036;-87
2022/05/06 14:39:29;;;;;;;11.82;10.32;;;13.40;99.90;;;;;;6191299;23;20024;-82
2022/05/06 14:41:57;;;;;;;12.45;11.15;;;13.60;99.90;;;;;;6156089;23;20043;-85
2022/05/06 14:44:31;;;;;;;17.30;11.75;;;13.50;99.90;;;;;;6188833;23;20772;-83
2022/05/06 14:47:00;;;;;;;16.80;11.65;;;13.50;99.90;;;;;;6182162;23;20016;-84
2022/05/06 14:49:28;;;;;;;15.52;11.80;;;13.60;99.90;;;;;;6155511;23;20024;-85
2022/05/06 14:51:58;;;;;;;11.40;9.68;;;13.50;99.90;;;;;;6215124;23;20016;-86
2022/05/06 14:54:26;;;;;;;12.70;11.40;;;13.60;99.90;;;;;;6133059;23;20023;-82
2022/05/06 14:56:54;;;;;;;15.02;10.52;;;13.70;99.90;;;;;;6180418;23;20519;-84
2022/05/06 14:59:22;;;;;;;13.63;11.27;;;13.70;99.90;;;;;;6132811;23;20013;-83
2022/05/06 15:01:51;;;;;;;13.90;11.88;;;13.80;99.90;;;;;;6156635;23;20028;-84
2022/05/06 15:04:22;;;;;;;17.35;12.00;;;13.70;99.90;;;;;;6157017;23;20031;-86
2022/05/06 15:06:52;;;;;;;14.68;11.80;;;13.60;99.90;;;;;;6165713;23;20017;-83
2022/05/06 15:09:24;;;;;;;12.65;10.45;;;13.40;99.90;;;;;;6155607;23;20021;-86
2022/05/06 15:11:53;;;;;;;18.15;11.15;;;13.20;99.90;;;;;;6131458;23;20700;-84
2022/05/06 15:14:23;;;;;;;15.32;12.70;;;13.20;99.90;;;;;;6218323;23;20561;-84
2022/05/06 15:16:50;;;;;;;15.70;11.90;;;13.20;99.90;;;;;;6212296;23;20341;-82
2022/05/06 15:19:25;;;;;;;13.02;11.15;;;13.10;99.90;;;;;;6217632;23;20451;-87
2022/05/06 15:21:53;;;;;;;15.25;9.23;;;13.10;99.90;;;;;;6207218;23;20024;-80
2022/05/06 15:24:26;;;;;;;17.38;13.70;;;13.10;99.90;;;;;;6180255;23;20029;-81
2022/05/06 15:27:34;;;;;;;13.68;9.88;;;13.20;99.90;;;;;;6217008;23;20012;-86
2022/05/06 15:30:18;;;;;;;15.23;10.75;;;13.10;99.90;;;;;;6018914;23;20034;-78
2022/05/06 15:32:46;;;;;;;15.18;13.70;;;13.00;99.90;;;;;;6065199;23;20042;-80
2022/05/06 15:35:14;;;;;;;11.93;10.73;;;13.00;99.90;;;;;;6070533;23;20019;-81
2022/05/06 15:37:42;;;;;;;11.77;10.55;;;13.00;99.90;;;;;;6060466;23;20034;-82
2022/05/06 15:40:10;;;;;;;12.30;9.93;;;13.00;99.90;;;;;;6066340;23;20030;-85
2022/05/06 15:42:38;;;;;;;14.57;10.75;;;13.00;99.90;;;;;;6044864;23;20014;-85
2022/05/06 15:45:06;;;;;;;12.45;10.90;;;13.00;99.90;;;;;;6034208;23;20493;-85
2022/05/06 15:47:33;;;;;;;12.05;9.43;;;13.10;99.90;;;;;;6037796;23;20018;-83
2022/05/06 15:50:07;;;;;;;13.48;10.93;;;13.20;99.90;;;;;;6073887;23;20022;-87
2022/05/06 15:52:35;;;;;;;10.32;7.70;;;13.20;99.90;;;;;;6042121;23;20022;-81
2022/05/06 15:55:03;;;;;;;10.95;8.32;;;13.30;99.90;;;;;;6099966;23;20025;-80
2022/05/06 15:57:31;;;;;;;9.68;6.72;;;13.30;99.90;;;;;;6091508;23;20026;-81
2022/05/06 16:00:02;;;;;;;11.20;8.13;;;13.30;99.90;;;;;;6072609;23;20018;-81
2022/05/06 16:02:38;;;;;;;29.95;10.00;;;13.30;99.90;;;;;;6067288;23;20018;-81
2022/05/06 16:05:07;;;;;;;7.72;5.80;;;13.40;99.90;;;;;;6062926;23;20026;-80
2022/05/06 16:07:38;;;;;;;7.20;5.97;;;13.30;99.90;;;;;;6094806;23;20034;-75
2022/05/06 16:10:12;;;;;;;8.23;7.45;;;13.30;99.90;;;;;;6099311;23;20022;-86
2022/05/06 16:12:47;;;;;;;7.85;7.07;;;13.20;99.90;;;;;;6063287;23;20454;-84
2022/05/06 16:15:21;;;;;;;10.65;9.60;;;13.20;99.90;;;;;;6041535;23;20033;-85
2022/05/06 16:17:51;;;;;;;8.27;6.65;;;13.20;99.90;;;;;;6062769;23;20375;-80
2022/05/06 16:20:23;;;;;;;9.05;7.53;;;13.10;99.90;;;;;;6095640;23;20034;-85
2022/05/06 16:23:53;;;;;;;8.93;6.00;;;13.10;99.90;;;;;;6044844;23;20471;-85
2022/05/06 16:26:43;;;;;;;6.53;5.72;;;13.10;99.90;;;;;;6017448;23;20033;-82
2022/05/06 16:29:15;;;;;;;7.18;6.55;;;13.00;99.90;;;;;;6034632;23;20026;-82
2022/05/06 16:31:45;;;;;;;6.28;5.68;;;13.00;99.90;;;;;;6096724;23;20335;-82
2022/05/06 16:37:20;;;;;;;7.45;5.97;;;12.90;99.90;;;;;;6092462;23;20350;-81
2022/05/06 16:39:49;;;;;;;6.85;6.15;;;12.90;99.90;;;;;;6095578;23;20018;-84
2022/05/06 16:42:17;;;;;;;6.88;6.15;;;12.90;99.90;;;;;;6063786;23;20023;-83
2022/05/06 16:44:45;;;;;;;8.05;6.60;;;12.90;99.90;;;;;;6063503;23;20029;-85
2022/05/06 16:47:13;;;;;;;7.93;6.28;;;12.90;99.90;;;;;;6018095;23;20022;-84
2022/05/06 16:49:41;;;;;;;12.00;6.72;;;12.80;99.90;;;;;;6091494;23;20350;-84
2022/05/06 16:52:08;;;;;;;5.63;4.95;;;12.80;99.90;;;;;;6016913;23;20023;-85
2022/05/06 16:54:36;;;;;;;6.40;5.47;;;12.70;99.90;;;;;;6075826;23;20022;-82
2022/05/06 16:57:04;;;;;;;7.10;6.47;;;12.80;99.90;;;;;;6094336;23;20027;-81
2022/05/06 16:59:33;;;;;;;8.48;6.05;;;12.70;99.90;;;;;;6075472;23;20018;-77
2022/05/06 17:02:01;;;;;;;7.60;6.50;;;12.70;99.90;;;;;;6090431;23;20026;-84
2022/05/06 17:04:30;;;;;;;7.50;5.70;;;12.60;99.90;;;;;;6047754;23;20026;-84
2022/05/06 17:06:58;;;;;;;6.63;5.30;;;12.60;99.90;;;;;;6050967;23;20025;-84
2022/05/06 17:09:26;;;;;;;7.80;7.07;;;12.60;99.90;;;;;;6040480;23;20551;-84
2022/05/06 17:11:53;;;;;;;7.47;6.00;;;12.60;99.90;;;;;;6041095;23;20022;-84
2022/05/06 17:14:21;;;;;;;8.45;7.10;;;12.50;99.90;;;;;;6101777;23;20014;-86
2022/05/06 17:16:49;;;;;;;7.47;5.25;;;12.50;99.90;;;;;;6017735;23;20466;-85
2022/05/06 17:19:33;;;;;;;6.80;6.10;;;12.50;99.90;;;;;;6046878;23;20019;-91
2022/05/06 17:22:09;;;;;;;8.30;6.45;;;12.50;99.90;;;;;;6078935;23;20037;-91
2022/05/06 17:24:37;;;;;;;7.95;5.43;;;12.50;99.90;;;;;;6019847;23;20026;-87
2022/05/06 17:27:06;;;;;;;7.53;6.63;;;12.40;99.90;;;;;;6018121;23;20385;-88
2022/05/06 17:29:39;;;;;;;9.77;7.18;;;12.40;99.90;;;;;;6016145;23;20038;-88
2022/05/06 17:32:08;;;;;;;6.93;6.32;;;12.40;99.90;;;;;;6017145;23;20042;-82
2022/05/06 17:34:37;;;;;;;7.85;5.65;;;12.30;99.90;;;;;;6064975;23;20022;-82
2022/05/06 17:37:05;;;;;;;8.00;6.68;;;12.30;99.90;;;;;;6063759;23;20019;-88
2022/05/06 17:39:33;;;;;;;10.40;7.43;;;12.30;99.90;;;;;;6017973;23;20018;-86
2022/05/06 17:42:01;;;;;;;7.57;6.88;;;12.30;99.90;;;;;;6039799;23;20030;-87
2022/05/06 17:44:32;;;;;;;7.93;7.15;;;12.30;99.90;;;;;;6037267;23;20386;-87
2022/05/06 17:47:00;;;;;;;8.07;7.30;;;12.30;99.90;;;;;;6050400;23;20021;-80
2022/05/06 17:49:28;;;;;;;15.32;6.68;;;12.20;99.90;;;;;;6089685;23;20034;-81
2022/05/06 17:51:56;;;;;;;9.00;6.80;;;12.20;99.90;;;;;;6095518;23;20358;-80
2022/05/06 17:54:24;;;;;;;8.32;7.05;;;12.20;99.90;;;;;;6071237;23;20450;-78
2022/05/06 17:56:51;;;;;;;12.88;9.32;;;12.20;99.90;;;;;;6093158;23;20030;-79
2022/05/06 17:59:19;;;;;;;8.90;8.00;;;12.10;99.90;;;;;;6071270;23;20433;-78
2022/05/06 18:01:48;;;;;;;8.80;7.43;;;12.10;99.90;;;;;;6089078;23;20042;-80
2022/05/06 18:04:17;;;;;;;6.95;6.25;;;12.10;99.90;;;;;;6062484;23;20354;-84
2022/05/06 18:06:45;;;;;;;11.85;6.82;;;12.20;99.90;;;;;;6015117;23;20029;-83
2022/05/06 18:09:13;;;;;;;9.50;6.32;;;12.20;99.90;;;;;;6016347;23;20038;-83
2022/05/06 18:11:41;;;;;;;7.40;6.18;;;12.10;99.90;;;;;;6016723;23;20025;-83
2022/05/06 18:14:09;;;;;;;9.18;7.80;;;12.10;99.90;;;;;;6017560;23;20019;-82
2022/05/06 18:16:38;;;;;;;8.88;7.55;;;12.00;99.90;;;;;;6046222;23;20778;-82
2022/05/06 18:19:08;;;;;;;9.93;6.43;;;12.00;99.90;;;;;;6018783;23;20489;-83
2022/05/06 18:21:38;;;;;;;7.15;6.18;;;12.00;99.90;;;;;;6041873;23;20474;-83
2022/05/06 18:24:06;;;;;;;9.68;8.48;;;11.90;99.90;;;;;;6040743;23;20031;-83
2022/05/06 18:26:34;;;;;;;8.80;7.32;;;11.90;99.90;;;;;;6099550;23;20010;-85
2022/05/06 18:29:05;;;;;;;11.93;8.25;;;11.90;99.90;;;;;;6044939;23;20442;-83
2022/05/06 18:34:19;;;;;;;10.02;7.88;;;11.90;99.90;;;;;;6077981;23;20030;-85
2022/05/06 18:36:47;;;;;;;8.35;6.47;;;11.90;99.90;;;;;;6040095;23;20041;-83
2022/05/06 18:39:15;;;;;;;8.27;7.30;;;11.90;99.90;;;;;;6017785;23;20029;-87